Time;durP1;ratioP1;P1;durP2;ratioP2;P2;SDS_P1;SDS_P2;PMS_P1;PMS_P2;Temp;Humidity;BMP_temperature;BMP_pressure;BME280_temperature;BME280_humidity;BME280_pressure;Samples;Min_cycle;Max_cycle;Signal;HPM_P1;HPM_P2
2023/09/21 00:01:49;;;;;;;6.03;1.45;;;14.10;99.90;;;;;;5013748;28;20038;-54
2023/09/21 00:04:15;;;;;;;9.32;1.40;;;14.00;99.90;;;;;;5012959;28;20074;-56
2023/09/21 00:06:43;;;;;;;7.28;1.30;;;14.00;99.90;;;;;;5017284;28;20062;-55
2023/09/21 00:09:10;;;;;;;6.65;1.40;;;14.00;99.90;;;;;;5017561;28;20470;-58
2023/09/21 00:11:40;;;;;;;5.97;1.25;;;14.00;99.90;;;;;;5017128;28;20474;-55
2023/09/21 00:14:07;;;;;;;5.72;1.30;;;14.00;99.90;;;;;;5015856;28;20041;-57
2023/09/21 00:16:33;;;;;;;11.02;1.83;;;14.00;99.90;;;;;;5017428;28;20042;-58
2023/09/21 00:19:06;;;;;;;7.47;1.50;;;14.00;99.90;;;;;;5017062;28;20046;-56
2023/09/21 00:21:34;;;;;;;9.55;1.58;;;14.00;99.90;;;;;;5016940;28;20038;-57
2023/09/21 00:24:15;;;;;;;8.50;1.60;;;14.00;99.90;;;;;;5016917;28;20041;-55
2023/09/21 00:26:47;;;;;;;8.52;1.42;;;13.90;99.90;;;;;;5017350;28;20440;-54
2023/09/21 00:29:14;;;;;;;10.90;1.70;;;14.00;99.90;;;;;;4999444;28;20386;-55
2023/09/21 00:31:41;;;;;;;8.93;1.55;;;14.00;99.90;;;;;;5016994;28;20066;-56
2023/09/21 00:34:08;;;;;;;9.15;1.60;;;13.90;99.90;;;;;;5017054;28;20393;-57
2023/09/21 00:36:35;;;;;;;7.97;1.63;;;13.90;99.90;;;;;;5016753;28;20378;-59
2023/09/21 00:39:02;;;;;;;8.68;1.63;;;13.90;99.90;;;;;;5017019;28;20117;-58
2023/09/21 00:41:29;;;;;;;9.40;1.90;;;13.90;99.90;;;;;;4999023;28;20038;-54
2023/09/21 00:43:56;;;;;;;9.55;1.70;;;14.00;99.90;;;;;;5016723;28;20084;-58
2023/09/21 00:46:26;;;;;;;10.00;1.75;;;14.00;99.90;;;;;;5016699;28;20046;-59
2023/09/21 00:48:54;;;;;;;5.22;1.50;;;14.00;99.90;;;;;;5015043;28;20148;-56
2023/09/21 00:51:20;;;;;;;6.15;1.45;;;14.00;99.90;;;;;;5015246;28;20050;-60
2023/09/21 00:53:47;;;;;;;11.48;1.77;;;14.00;99.90;;;;;;5015474;28;20042;-59
2023/09/21 00:56:17;;;;;;;7.05;1.83;;;14.00;99.90;;;;;;5016108;28;20140;-59
2023/09/21 00:58:44;;;;;;;9.88;2.05;;;13.90;99.90;;;;;;5015161;28;20144;-57
2023/09/21 01:01:12;;;;;;;10.40;1.85;;;14.00;99.90;;;;;;5016336;28;20084;-58
2023/09/21 01:03:40;;;;;;;6.03;1.33;;;13.90;99.90;;;;;;5016375;28;20540;-56
2023/09/21 01:06:08;;;;;;;8.90;1.90;;;13.90;99.90;;;;;;5016213;28;20488;-57
2023/09/21 01:08:35;;;;;;;10.15;1.75;;;13.90;99.90;;;;;;5016390;28;20381;-60
2023/09/21 01:11:08;;;;;;;5.65;1.50;;;13.90;99.90;;;;;;5016411;28;20042;-56
2023/09/21 01:13:38;;;;;;;10.50;1.63;;;13.90;99.90;;;;;;5014735;28;20053;-53
2023/09/21 01:16:05;;;;;;;10.80;1.60;;;13.90;99.90;;;;;;5014419;28;20042;-54
2023/09/21 01:18:32;;;;;;;8.75;1.65;;;13.90;99.90;;;;;;5015042;28;20056;-56
2023/09/21 01:21:04;;;;;;;8.20;1.77;;;13.90;99.90;;;;;;5014833;28;20065;-50
2023/09/21 01:23:31;;;;;;;8.07;1.60;;;13.90;99.90;;;;;;5015988;28;20050;-55
2023/09/21 01:26:00;;;;;;;6.60;1.60;;;14.00;99.90;;;;;;5014790;28;20565;-60
2023/09/21 01:28:29;;;;;;;6.90;1.60;;;13.90;99.90;;;;;;5015856;28;20081;-56
2023/09/21 01:30:56;;;;;;;8.57;1.88;;;13.90;99.90;;;;;;5015869;28;20034;-54
2023/09/21 01:33:23;;;;;;;7.47;1.55;;;13.90;99.90;;;;;;5014803;28;20116;-59
2023/09/21 01:35:50;;;;;;;6.30;1.63;;;13.90;99.90;;;;;;5015701;28;20069;-58
2023/09/21 01:38:17;;;;;;;7.30;1.52;;;13.90;99.90;;;;;;5014498;28;20038;-58
2023/09/21 01:40:44;;;;;;;8.60;1.70;;;13.80;99.90;;;;;;5015362;28;20073;-58
2023/09/21 01:43:11;;;;;;;9.70;1.60;;;13.90;99.90;;;;;;5013866;28;20550;-54
2023/09/21 01:45:40;;;;;;;6.47;1.63;;;13.80;99.90;;;;;;5013977;28;20041;-57
2023/09/21 01:48:10;;;;;;;10.05;1.67;;;13.90;99.90;;;;;;5013819;28;20046;-59
2023/09/21 01:50:40;;;;;;;9.40;1.50;;;13.80;99.90;;;;;;5013823;28;20448;-59
2023/09/21 01:53:10;;;;;;;6.57;1.73;;;13.80;99.90;;;;;;5013987;28;20488;-60
2023/09/21 01:55:37;;;;;;;9.30;1.70;;;13.80;99.90;;;;;;5015360;28;20053;-55
2023/09/21 01:58:04;;;;;;;7.22;1.75;;;13.80;99.90;;;;;;5014971;28;20432;-59
2023/09/21 02:00:34;;;;;;;8.75;1.42;;;13.80;99.90;;;;;;5014039;28;20120;-57
2023/09/21 02:03:03;;;;;;;6.47;1.33;;;13.80;99.90;;;;;;5015260;28;20049;-57
2023/09/21 02:05:30;;;;;;;6.65;1.60;;;13.70;99.90;;;;;;5015221;28;20040;-59
2023/09/21 02:07:57;;;;;;;7.00;1.67;;;13.70;99.90;;;;;;5015107;28;20112;-58
2023/09/21 02:10:24;;;;;;;7.18;1.30;;;13.70;99.90;;;;;;5015198;28;20057;-57
2023/09/21 02:12:50;;;;;;;6.68;1.33;;;13.70;99.90;;;;;;5014011;28;20140;-57
2023/09/21 02:15:18;;;;;;;10.32;1.70;;;13.70;99.90;;;;;;5015135;28;20046;-58
2023/09/21 02:17:45;;;;;;;7.95;1.65;;;13.70;99.90;;;;;;5013404;28;20509;-54
2023/09/21 02:20:16;;;;;;;9.18;1.77;;;13.70;99.90;;;;;;5014665;28;20045;-55
2023/09/21 02:22:43;;;;;;;4.30;1.30;;;13.70;99.90;;;;;;5015048;28;20100;-54
2023/09/21 02:25:10;;;;;;;8.18;1.67;;;13.70;99.90;;;;;;5013293;28;20042;-58
2023/09/21 02:27:37;;;;;;;9.32;1.58;;;13.70;99.90;;;;;;5012671;28;20068;-54
2023/09/21 02:30:06;;;;;;;6.63;1.50;;;13.70;99.90;;;;;;5014916;28;20053;-58
2023/09/21 02:32:33;;;;;;;6.22;1.25;;;13.60;99.90;;;;;;5013242;28;20042;-52
2023/09/21 02:35:00;;;;;;;8.93;1.88;;;13.60;99.90;;;;;;5014523;28;20045;-55
2023/09/21 02:37:28;;;;;;;4.32;1.25;;;13.60;99.90;;;;;;5014154;28;20413;-53
2023/09/21 02:39:54;;;;;;;8.77;1.67;;;13.60;99.90;;;;;;5013406;28;20050;-60
2023/09/21 02:42:22;;;;;;;11.75;1.83;;;13.60;99.90;;;;;;5013259;28;20092;-57
2023/09/21 02:44:49;;;;;;;9.25;1.85;;;13.60;99.90;;;;;;5014501;28;20044;-58
2023/09/21 02:47:16;;;;;;;7.07;1.60;;;13.50;99.90;;;;;;5013412;28;20381;-57
2023/09/21 02:49:42;;;;;;;9.27;1.83;;;13.50;99.90;;;;;;5012820;28;20394;-52
2023/09/21 02:52:09;;;;;;;9.75;1.60;;;13.40;99.90;;;;;;5014152;28;20038;-61
2023/09/21 02:54:36;;;;;;;5.65;1.52;;;13.40;99.90;;;;;;5013406;28;20057;-58
2023/09/21 02:57:05;;;;;;;10.23;1.77;;;13.40;99.90;;;;;;5014311;28;20128;-58
2023/09/21 02:59:32;;;;;;;10.43;1.60;;;13.30;99.90;;;;;;5012648;28;20049;-60
2023/09/21 03:02:00;;;;;;;8.32;1.60;;;13.30;99.90;;;;;;5012382;28;20041;-57
2023/09/21 03:04:30;;;;;;;6.97;1.45;;;13.20;99.90;;;;;;5012503;28;20068;-55
2023/09/21 03:06:57;;;;;;;5.22;1.40;;;13.30;99.90;;;;;;5013864;28;20045;-57
2023/09/21 03:09:23;;;;;;;12.13;1.95;;;13.20;99.90;;;;;;5013933;28;20037;-59
2023/09/21 03:11:50;;;;;;;9.48;1.65;;;13.20;99.90;;;;;;5012515;28;20050;-61
2023/09/21 03:14:17;;;;;;;8.70;1.90;;;13.20;99.90;;;;;;5013746;28;20072;-58
2023/09/21 03:16:44;;;;;;;8.82;2.13;;;13.20;99.90;;;;;;5012348;28;20072;-59
2023/09/21 03:19:13;;;;;;;7.90;1.40;;;13.20;99.90;;;;;;5012746;28;20100;-58
2023/09/21 03:21:42;;;;;;;6.47;1.48;;;13.10;99.90;;;;;;5013859;28;20069;-59
2023/09/21 03:24:11;;;;;;;6.93;1.42;;;13.20;99.90;;;;;;5012584;28;20062;-59
2023/09/21 03:26:38;;;;;;;7.95;1.42;;;13.20;99.90;;;;;;5012697;28;20588;-61
2023/09/21 03:29:08;;;;;;;8.05;2.20;;;13.20;99.90;;;;;;5013664;28;20116;-57
2023/09/21 03:31:36;;;;;;;11.43;1.83;;;13.20;99.90;;;;;;5013943;28;20070;-60
2023/09/21 03:34:03;;;;;;;10.27;1.58;;;13.20;99.90;;;;;;5012090;28;20480;-58
2023/09/21 03:36:30;;;;;;;8.63;2.28;;;13.20;99.90;;;;;;5012253;28;20488;-59
2023/09/21 03:38:56;;;;;;;10.20;1.67;;;13.20;99.90;;;;;;5012031;28;20046;-59
2023/09/21 03:41:23;;;;;;;10.63;1.60;;;13.10;99.90;;;;;;5012185;28;20457;-58
2023/09/21 03:43:50;;;;;;;5.78;1.52;;;13.10;99.90;;;;;;5012297;28;20145;-57
2023/09/21 03:46:18;;;;;;;9.10;1.77;;;13.10;99.90;;;;;;5012169;28;20096;-53
2023/09/21 03:48:45;;;;;;;9.02;1.98;;;13.20;99.90;;;;;;5011661;28;20442;-56
2023/09/21 03:51:13;;;;;;;8.35;1.70;;;13.10;99.90;;;;;;5012413;28;20042;-57
2023/09/21 03:53:40;;;;;;;13.68;1.88;;;13.10;99.90;;;;;;5012274;28;20038;-57
2023/09/21 03:56:07;;;;;;;11.23;1.90;;;13.10;99.90;;;;;;5012574;28;20465;-53
2023/09/21 03:58:34;;;;;;;9.38;1.83;;;13.10;99.90;;;;;;5013612;28;20120;-54
2023/09/21 04:01:04;;;;;;;8.13;2.20;;;13.10;99.90;;;;;;5013754;28;20507;-53
2023/09/21 04:03:32;;;;;;;9.32;1.73;;;13.10;99.90;;;;;;5012238;28;20116;-57
2023/09/21 04:06:06;;;;;;;8.18;1.90;;;13.10;99.90;;;;;;5012609;28;20486;-59
2023/09/21 04:08:33;;;;;;;10.75;1.88;;;13.20;99.90;;;;;;5012405;28;20042;-60
2023/09/21 04:11:00;;;;;;;7.95;2.00;;;13.20;99.90;;;;;;5013485;28;20041;-53
2023/09/21 04:13:27;;;;;;;8.27;1.70;;;13.20;99.90;;;;;;5013562;28;20041;-53
2023/09/21 04:15:54;;;;;;;7.47;1.98;;;13.20;99.90;;;;;;5011801;28;20470;-58
2023/09/21 04:18:20;;;;;;;12.27;1.88;;;13.20;99.90;;;;;;5012177;28;20050;-58
2023/09/21 04:20:52;;;;;;;10.20;1.80;;;13.20;99.90;;;;;;5013447;28;20048;-58
2023/09/21 04:23:39;;;;;;;12.45;2.08;;;13.10;99.90;;;;;;5011792;28;20137;-58
2023/09/21 04:26:06;;;;;;;7.00;1.88;;;13.10;99.90;;;;;;5011887;28;20052;-54
2023/09/21 04:28:32;;;;;;;9.02;1.75;;;13.10;99.90;;;;;;5012905;28;20045;-55
2023/09/21 04:30:59;;;;;;;11.75;2.47;;;13.00;99.90;;;;;;5011749;28;20046;-53
2023/09/21 04:33:26;;;;;;;11.68;2.15;;;13.00;99.90;;;;;;5012154;28;20045;-60
2023/09/21 04:35:53;;;;;;;7.03;1.73;;;13.00;99.90;;;;;;5012898;28;20050;-53
2023/09/21 04:38:20;;;;;;;8.05;1.73;;;13.00;99.90;;;;;;5011851;28;20054;-57
2023/09/21 04:40:48;;;;;;;9.82;1.90;;;13.00;99.90;;;;;;5013123;28;20100;-58
2023/09/21 04:43:17;;;;;;;11.20;2.15;;;13.00;99.90;;;;;;5012922;28;20030;-56
2023/09/21 04:45:43;;;;;;;8.88;1.80;;;13.00;99.90;;;;;;5011483;28;20053;-57
2023/09/21 04:48:11;;;;;;;9.88;1.63;;;13.00;99.90;;;;;;5013055;28;20038;-58
2023/09/21 04:50:38;;;;;;;8.65;1.58;;;13.00;99.90;;;;;;5012737;28;20084;-60
2023/09/21 04:53:04;;;;;;;15.07;2.10;;;13.00;99.90;;;;;;5015331;28;20057;-57
2023/09/21 04:55:31;;;;;;;10.68;2.30;;;13.00;99.90;;;;;;5015410;28;20042;-58
2023/09/21 04:57:59;;;;;;;9.95;1.75;;;13.00;99.90;;;;;;5015013;28;20412;-57
2023/09/21 05:00:27;;;;;;;9.40;1.50;;;13.00;99.90;;;;;;5014671;28;20492;-55
2023/09/21 05:02:54;;;;;;;11.63;1.83;;;13.00;99.90;;;;;;5015018;28;20048;-56
2023/09/21 05:05:24;;;;;;;7.22;1.63;;;12.90;99.90;;;;;;5015340;28;20389;-59
2023/09/21 05:07:52;;;;;;;12.55;2.08;;;13.00;99.90;;;;;;5014961;28;20103;-59
2023/09/21 05:10:19;;;;;;;12.15;2.55;;;13.00;99.90;;;;;;5015173;28;20107;-59
2023/09/21 05:12:51;;;;;;;9.60;1.73;;;12.90;99.90;;;;;;5015318;28;20424;-58
2023/09/21 05:15:19;;;;;;;12.85;1.80;;;13.00;99.90;;;;;;5016190;28;20061;-59
2023/09/21 05:17:46;;;;;;;21.65;7.60;;;13.00;99.90;;;;;;5015750;28;20061;-57
2023/09/21 05:20:12;;;;;;;13.07;2.50;;;13.00;99.90;;;;;;5015746;28;20488;-60
2023/09/21 05:22:39;;;;;;;10.00;1.67;;;13.00;99.90;;;;;;5015882;28;20069;-59
2023/09/21 05:25:06;;;;;;;12.32;2.47;;;13.00;99.90;;;;;;5016071;28;20062;-59
2023/09/21 05:27:33;;;;;;;12.40;2.58;;;12.90;99.90;;;;;;5014716;28;20042;-57
2023/09/21 05:30:01;;;;;;;12.15;1.83;;;13.00;99.90;;;;;;5016271;28;20097;-57
2023/09/21 05:32:28;;;;;;;8.60;2.03;;;13.00;99.90;;;;;;5015909;28;20042;-59
2023/09/21 05:34:56;;;;;;;14.18;2.10;;;13.00;99.90;;;;;;5015909;28;20189;-55
2023/09/21 05:37:23;;;;;;;10.93;1.95;;;13.00;99.90;;;;;;5014407;28;20484;-58
2023/09/21 05:39:51;;;;;;;14.00;2.08;;;12.90;99.90;;;;;;5015548;28;20049;-57
2023/09/21 05:42:18;;;;;;;9.10;2.22;;;12.90;99.90;;;;;;5014210;28;20049;-58
2023/09/21 05:44:46;;;;;;;11.50;1.92;;;12.90;99.90;;;;;;5015283;28;20084;-60
2023/09/21 05:47:12;;;;;;;11.93;2.33;;;12.90;99.90;;;;;;5015130;28;20069;-56
2023/09/21 05:49:39;;;;;;;7.00;1.77;;;12.90;99.90;;;;;;5014828;28;20065;-59
2023/09/21 05:52:12;;;;;;;7.72;1.80;;;12.80;99.90;;;;;;5015446;28;20057;-59
2023/09/21 05:54:40;;;;;;;12.10;2.40;;;12.80;99.90;;;;;;5015695;28;20429;-55
2023/09/21 05:57:07;;;;;;;7.30;2.20;;;12.70;99.90;;;;;;5015414;28;20042;-59
2023/09/21 05:59:33;;;;;;;9.25;2.20;;;12.80;99.90;;;;;;5015466;28;20046;-54
2023/09/21 06:02:03;;;;;;;9.75;1.70;;;12.80;99.90;;;;;;5014483;28;20077;-59
2023/09/21 06:04:30;;;;;;;9.63;2.67;;;12.80;99.90;;;;;;5014994;28;20124;-55
2023/09/21 06:06:58;;;;;;;8.13;1.75;;;12.70;99.90;;;;;;5015209;28;20125;-56
2023/09/21 06:09:25;;;;;;;12.55;2.10;;;12.70;99.90;;;;;;5015193;28;20117;-55
2023/09/21 06:11:52;;;;;;;9.90;2.05;;;12.70;99.90;;;;;;5015110;28;20096;-54
2023/09/21 06:14:19;;;;;;;11.82;1.83;;;12.80;99.90;;;;;;5014989;28;20065;-55
2023/09/21 06:16:45;;;;;;;8.82;1.80;;;12.70;99.90;;;;;;5015083;28;20046;-59
2023/09/21 06:19:12;;;;;;;12.23;2.08;;;12.70;99.90;;;;;;5013823;28;20073;-56
2023/09/21 06:21:42;;;;;;;10.85;2.97;;;12.70;99.90;;;;;;5014910;28;20466;-55
2023/09/21 06:24:09;;;;;;;7.93;2.10;;;12.70;99.90;;;;;;5014470;28;20037;-57
2023/09/21 06:26:36;;;;;;;8.85;2.10;;;12.70;99.90;;;;;;5014610;28;20074;-59
2023/09/21 06:29:03;;;;;;;10.05;2.15;;;12.70;99.90;;;;;;5014858;28;20045;-52
2023/09/21 06:31:30;;;;;;;12.98;2.47;;;12.70;99.90;;;;;;5014815;28;20117;-58
2023/09/21 06:34:01;;;;;;;8.35;1.92;;;12.70;99.90;;;;;;5014573;28;20042;-55
2023/09/21 06:36:29;;;;;;;12.57;2.28;;;12.70;99.90;;;;;;5014162;28;20073;-56
2023/09/21 06:38:57;;;;;;;6.43;1.77;;;12.70;99.90;;;;;;5012894;28;20433;-57
2023/09/21 06:41:24;;;;;;;7.82;2.03;;;12.70;99.90;;;;;;5014618;28;20045;-55
2023/09/21 06:43:51;;;;;;;13.85;2.30;;;12.70;99.90;;;;;;5014295;28;20053;-57
2023/09/21 06:46:18;;;;;;;7.53;1.90;;;12.60;99.90;;;;;;5014526;28;20045;-53
2023/09/21 06:48:46;;;;;;;7.95;2.13;;;12.70;99.90;;;;;;5013995;28;20040;-52
2023/09/21 06:51:13;;;;;;;8.65;1.77;;;12.60;99.90;;;;;;5014475;28;20041;-57
2023/09/21 06:53:40;;;;;;;10.07;2.13;;;12.70;99.90;;;;;;5014447;28;20038;-52
2023/09/21 06:56:06;;;;;;;15.27;2.30;;;12.70;99.90;;;;;;5014174;28;20046;-55
2023/09/21 06:58:35;;;;;;;13.85;2.50;;;12.60;99.90;;;;;;5014400;28;20504;-54
2023/09/21 07:01:05;;;;;;;15.27;2.53;;;12.60;99.90;;;;;;5014253;28;20050;-54
2023/09/21 07:03:36;;;;;;;10.75;2.40;;;12.60;99.90;;;;;;5013991;28;20129;-58
2023/09/21 07:06:03;;;;;;;9.05;2.40;;;12.70;99.90;;;;;;5014104;28;20042;-58
2023/09/21 07:08:31;;;;;;;8.18;2.33;;;12.60;99.90;;;;;;5013592;28;20038;-56
2023/09/21 07:10:57;;;;;;;12.82;2.58;;;12.60;99.90;;;;;;5013777;28;20125;-51
2023/09/21 07:13:24;;;;;;;11.93;2.70;;;12.60;99.90;;;;;;5012166;28;20046;-60
2023/09/21 07:15:52;;;;;;;11.88;3.55;;;12.60;99.90;;;;;;5013644;28;20076;-52
2023/09/21 07:18:20;;;;;;;10.88;3.17;;;12.60;99.90;;;;;;5012456;28;20539;-51
2023/09/21 07:20:47;;;;;;;9.00;2.63;;;12.60;99.90;;;;;;5013925;28;20046;-56
2023/09/21 07:23:15;;;;;;;8.77;3.15;;;12.60;99.90;;;;;;5013593;28;20124;-54
2023/09/21 07:25:41;;;;;;;9.32;3.35;;;12.60;99.90;;;;;;5013451;28;20072;-55
2023/09/21 07:28:08;;;;;;;14.65;3.70;;;12.60;99.90;;;;;;5013393;28;20088;-56
2023/09/21 07:30:35;;;;;;;12.55;3.38;;;12.60;99.90;;;;;;5013578;28;20044;-56
2023/09/21 07:33:02;;;;;;;11.18;3.35;;;12.60;99.90;;;;;;5013707;28;20099;-56
2023/09/21 07:35:30;;;;;;;9.57;2.85;;;12.60;99.90;;;;;;4996277;28;20049;-56
2023/09/21 07:37:57;;;;;;;17.58;3.47;;;12.70;99.90;;;;;;5012235;28;20505;-55
2023/09/21 07:40:27;;;;;;;13.52;3.50;;;12.70;99.90;;;;;;5013748;28;20042;-54
2023/09/21 07:42:54;;;;;;;14.57;3.80;;;12.70;99.90;;;;;;5013777;28;20088;-61
2023/09/21 07:45:22;;;;;;;12.93;3.15;;;12.80;99.90;;;;;;5014036;28;20029;-58
2023/09/21 07:47:49;;;;;;;10.57;3.15;;;12.80;99.90;;;;;;5024324;28;20046;-54
2023/09/21 07:50:22;;;;;;;10.63;3.08;;;12.80;99.90;;;;;;5033007;28;20092;-56
2023/09/21 07:52:53;;;;;;;12.45;2.72;;;12.80;99.90;;;;;;5033388;28;20104;-57
2023/09/21 07:55:20;;;;;;;10.55;2.60;;;12.80;99.90;;;;;;5033291;28;20477;-54
2023/09/21 07:57:48;;;;;;;12.93;2.90;;;12.80;99.90;;;;;;5031840;28;20049;-58
2023/09/21 08:00:15;;;;;;;10.32;2.80;;;12.90;99.90;;;;;;5033159;28;20041;-58
2023/09/21 08:02:42;;;;;;;8.80;2.20;;;12.90;99.90;;;;;;5032918;28;20065;-57
2023/09/21 08:05:09;;;;;;;11.80;3.13;;;12.90;99.90;;;;;;5033358;28;20103;-53
2023/09/21 08:07:37;;;;;;;12.68;3.15;;;13.00;99.90;;;;;;5033281;28;20132;-56
2023/09/21 08:10:04;;;;;;;11.55;3.03;;;13.00;99.90;;;;;;5033197;28;20072;-54
2023/09/21 08:12:31;;;;;;;13.98;2.97;;;13.10;99.90;;;;;;5031915;28;20096;-61
2023/09/21 08:14:59;;;;;;;10.98;2.75;;;13.10;99.90;;;;;;5033122;28;20095;-53
2023/09/21 08:17:26;;;;;;;11.70;2.50;;;13.20;99.90;;;;;;5032858;28;20430;-54
2023/09/21 08:19:53;;;;;;;13.77;2.83;;;13.30;99.90;;;;;;5032669;28;20037;-57
2023/09/21 08:22:21;;;;;;;17.13;3.22;;;13.30;99.90;;;;;;5032733;28;20077;-56
2023/09/21 08:24:50;;;;;;;20.83;3.05;;;13.30;99.90;;;;;;5033082;28;20072;-60
2023/09/21 08:27:18;;;;;;;13.70;2.75;;;13.40;99.90;;;;;;5036327;28;20116;-59
2023/09/21 08:29:45;;;;;;;11.27;2.50;;;13.40;99.90;;;;;;5036438;28;20042;-54
2023/09/21 08:32:12;;;;;;;11.30;2.30;;;13.40;99.90;;;;;;5034944;28;20393;-55
2023/09/21 08:34:40;;;;;;;8.05;2.05;;;13.40;99.90;;;;;;5036746;28;20128;-55
2023/09/21 08:37:07;;;;;;;14.18;2.80;;;13.50;99.90;;;;;;5036756;28;20045;-56
2023/09/21 08:39:34;;;;;;;10.18;2.28;;;13.50;99.90;;;;;;5036155;28;20073;-59
2023/09/21 08:42:03;;;;;;;11.48;2.60;;;13.50;99.90;;;;;;5036640;28;20046;-58
2023/09/21 08:44:30;;;;;;;11.13;2.40;;;13.60;99.90;;;;;;5036445;28;20092;-50
2023/09/21 08:46:57;;;;;;;14.70;2.53;;;13.60;99.90;;;;;;5036467;28;20477;-54
2023/09/21 08:49:25;;;;;;;11.27;2.78;;;13.70;99.90;;;;;;5028127;28;20540;-51
2023/09/21 08:51:52;;;;;;;13.45;2.10;;;13.80;99.90;;;;;;5023145;28;20050;-53
2023/09/21 08:54:21;;;;;;;18.88;3.30;;;13.80;99.90;;;;;;5026086;28;20487;-53
2023/09/21 08:56:48;;;;;;;15.38;2.72;;;13.90;99.90;;;;;;5036073;28;20068;-52
2023/09/21 08:59:15;;;;;;;10.80;2.80;;;14.00;99.90;;;;;;5035959;28;20095;-60
2023/09/21 09:01:42;;;;;;;9.13;2.08;;;14.00;99.90;;;;;;5036455;28;20048;-55
2023/09/21 09:04:09;;;;;;;12.38;3.25;;;14.10;99.90;;;;;;5035794;28;20045;-52
2023/09/21 09:06:37;;;;;;;10.60;2.35;;;14.20;99.90;;;;;;5036160;28;20042;-55
2023/09/21 09:09:05;;;;;;;9.07;1.98;;;14.30;99.90;;;;;;5036079;28;20382;-55
2023/09/21 09:11:32;;;;;;;8.85;2.00;;;14.30;99.90;;;;;;5035857;28;20041;-56
2023/09/21 09:14:00;;;;;;;9.00;2.13;;;14.40;99.90;;;;;;5035751;28;20128;-55
2023/09/21 09:16:27;;;;;;;14.65;2.45;;;14.30;99.90;;;;;;5035855;28;20049;-57
2023/09/21 09:18:54;;;;;;;9.30;2.55;;;14.40;99.90;;;;;;5034641;28;20557;-52
2023/09/21 09:21:21;;;;;;;7.57;1.60;;;14.40;99.90;;;;;;5018240;28;20477;-51
2023/09/21 09:23:48;;;;;;;8.65;1.90;;;14.40;99.90;;;;;;5036047;28;20128;-50
2023/09/21 09:26:16;;;;;;;13.35;2.22;;;14.40;99.90;;;;;;5035627;28;20537;-54
2023/09/21 09:28:42;;;;;;;11.30;2.15;;;14.50;99.90;;;;;;5035509;28;20041;-56
2023/09/21 09:31:11;;;;;;;11.15;2.10;;;14.60;99.90;;;;;;5035491;28;20041;-52
2023/09/21 09:33:41;;;;;;;9.35;2.35;;;14.70;99.90;;;;;;5035848;28;20053;-54
2023/09/21 09:36:07;;;;;;;5.78;1.98;;;14.70;99.90;;;;;;5032303;28;20044;-60
2023/09/21 09:38:34;;;;;;;14.02;2.55;;;14.70;99.90;;;;;;5035487;28;20048;-57
2023/09/21 09:41:04;;;;;;;6.97;2.05;;;14.80;99.90;;;;;;5035457;28;20033;-57
2023/09/21 09:43:31;;;;;;;12.07;2.00;;;14.90;99.90;;;;;;5035318;28;20457;-57
2023/09/21 09:45:58;;;;;;;8.98;1.92;;;14.90;99.90;;;;;;5035050;28;20475;-57
2023/09/21 09:48:25;;;;;;;10.40;1.50;;;15.00;99.90;;;;;;5034822;28;20431;-52
2023/09/21 09:50:54;;;;;;;9.95;2.13;;;15.00;99.90;;;;;;5034645;28;20038;-58
2023/09/21 09:53:24;;;;;;;10.73;2.30;;;15.00;99.90;;;;;;5034809;28;20166;-57
2023/09/21 09:55:53;;;;;;;16.88;2.00;;;15.00;99.90;;;;;;5034420;28;20045;-58
2023/09/21 09:58:20;;;;;;;9.63;2.08;;;15.10;99.90;;;;;;5035121;28;20461;-57
2023/09/21 10:00:51;;;;;;;13.77;2.60;;;15.10;99.90;;;;;;5033611;28;20145;-55
2023/09/21 10:03:18;;;;;;;9.05;2.42;;;15.20;99.90;;;;;;5034804;28;20034;-52
2023/09/21 10:05:46;;;;;;;8.05;1.83;;;15.30;99.90;;;;;;5033365;28;20092;-54
2023/09/21 10:08:13;;;;;;;9.73;2.92;;;15.30;99.90;;;;;;5034250;28;20488;-53
2023/09/21 10:10:42;;;;;;;9.80;1.95;;;15.30;99.90;;;;;;5033876;28;20582;-56
2023/09/21 10:13:08;;;;;;;7.25;2.13;;;15.40;99.90;;;;;;5034362;28;20156;-59
2023/09/21 10:15:35;;;;;;;8.07;1.90;;;15.50;99.90;;;;;;5034263;28;20033;-55
2023/09/21 10:18:04;;;;;;;12.50;2.65;;;15.50;99.90;;;;;;5033337;28;20073;-53
2023/09/21 10:20:36;;;;;;;9.10;2.08;;;15.60;99.90;;;;;;5034088;28;20055;-54
2023/09/21 10:23:02;;;;;;;8.73;2.10;;;15.70;99.90;;;;;;5034241;28;20038;-58
2023/09/21 10:25:31;;;;;;;11.98;2.53;;;15.80;99.90;;;;;;5034180;28;20045;-59
2023/09/21 10:28:00;;;;;;;8.32;1.90;;;16.00;99.90;;;;;;5032830;28;20045;-55
2023/09/21 10:30:27;;;;;;;9.48;2.10;;;16.20;99.90;;;;;;5033415;28;20111;-55
2023/09/21 10:32:55;;;;;;;7.55;2.03;;;16.40;99.90;;;;;;5033878;28;20068;-55
2023/09/21 10:35:22;;;;;;;6.38;1.70;;;16.70;99.90;;;;;;5034352;28;20057;-60
2023/09/21 10:37:49;;;;;;;7.90;1.85;;;16.90;99.90;;;;;;5032868;28;20061;-59
2023/09/21 10:40:16;;;;;;;7.63;2.15;;;17.10;99.90;;;;;;5034193;28;20041;-58
2023/09/21 10:42:43;;;;;;;9.63;2.08;;;17.20;99.90;;;;;;5033726;28;20065;-58
2023/09/21 10:45:10;;;;;;;5.72;1.77;;;17.50;99.90;;;;;;5032670;28;20049;-60
2023/09/21 10:47:37;;;;;;;6.68;2.15;;;17.60;99.90;;;;;;5032428;28;20050;-62
2023/09/21 10:50:04;;;;;;;10.25;2.33;;;17.70;99.90;;;;;;5033288;28;20545;-59
2023/09/21 10:52:31;;;;;;;11.60;2.50;;;17.80;99.90;;;;;;5031513;28;20052;-60
2023/09/21 10:54:58;;;;;;;12.98;2.63;;;17.90;99.90;;;;;;5033912;28;20041;-59
2023/09/21 10:57:25;;;;;;;6.85;1.88;;;18.00;99.90;;;;;;5032826;28;20042;-57
2023/09/21 10:59:52;;;;;;;10.45;2.47;;;18.20;99.90;;;;;;5033639;28;20042;-60
2023/09/21 11:02:41;;;;;;;11.32;2.35;;;18.30;99.90;;;;;;5033820;28;20054;-54
2023/09/21 11:05:08;;;;;;;9.55;3.08;;;18.40;99.90;;;;;;5031309;28;20480;-58
2023/09/21 11:07:36;;;;;;;9.40;2.40;;;18.40;99.90;;;;;;5033197;28;20064;-59
2023/09/21 11:10:06;;;;;;;11.07;2.80;;;18.50;99.90;;;;;;5033302;28;20037;-56
2023/09/21 11:12:34;;;;;;;7.07;2.28;;;18.50;99.90;;;;;;5033064;28;20072;-58
2023/09/21 11:15:03;;;;;;;6.97;2.25;;;18.40;99.90;;;;;;5032220;28;20045;-57
2023/09/21 11:17:30;;;;;;;8.07;2.33;;;18.50;99.90;;;;;;5033382;28;20045;-58
2023/09/21 11:19:57;;;;;;;8.98;2.40;;;18.60;99.90;;;;;;5033317;28;20045;-56
2023/09/21 11:22:25;;;;;;;10.43;2.83;;;18.60;99.90;;;;;;5033432;28;20052;-58
2023/09/21 11:24:51;;;;;;;6.38;2.00;;;18.60;99.90;;;;;;5033112;28;20045;-55
2023/09/21 11:27:19;;;;;;;9.20;2.90;;;18.60;99.90;;;;;;5032984;28;20069;-59
2023/09/21 11:29:46;;;;;;;9.80;2.58;;;18.50;99.90;;;;;;5032173;28;20041;-56
2023/09/21 11:32:17;;;;;;;14.98;2.65;;;18.50;99.90;;;;;;5032638;28;20500;-58
2023/09/21 11:34:47;;;;;;;10.05;2.35;;;18.40;99.90;;;;;;5026631;28;20059;-58
2023/09/21 11:37:14;;;;;;;6.93;2.00;;;18.40;99.90;;;;;;5032589;28;20531;-61
2023/09/21 11:39:40;;;;;;;9.38;2.53;;;18.40;99.90;;;;;;5032679;28;20393;-57
2023/09/21 11:42:10;;;;;;;10.07;2.70;;;18.30;99.90;;;;;;5026149;28;20045;-59
2023/09/21 11:44:37;;;;;;;10.88;2.50;;;18.20;99.90;;;;;;5025253;28;20029;-61
2023/09/21 11:47:04;;;;;;;7.68;2.40;;;18.20;99.90;;;;;;5032814;28;20041;-57
2023/09/21 11:49:31;;;;;;;11.60;2.80;;;18.20;99.90;;;;;;5032709;28;20054;-60
2023/09/21 11:51:58;;;;;;;6.97;2.20;;;18.10;99.90;;;;;;5032709;28;20132;-59
2023/09/21 11:54:26;;;;;;;14.55;2.60;;;18.20;99.90;;;;;;5026773;28;20048;-58
2023/09/21 11:56:53;;;;;;;9.13;2.65;;;18.20;99.90;;;;;;5026404;28;20046;-59
2023/09/21 11:59:20;;;;;;;10.23;2.30;;;18.30;99.90;;;;;;5026178;28;20119;-62
2023/09/21 12:01:48;;;;;;;10.82;2.78;;;18.40;99.90;;;;;;5029963;28;20099;-56
2023/09/21 12:04:17;;;;;;;7.30;2.33;;;18.40;99.90;;;;;;5030365;28;20103;-59
2023/09/21 12:06:44;;;;;;;10.32;3.25;;;18.50;99.90;;;;;;5030415;28;20037;-58
2023/09/21 12:09:13;;;;;;;9.68;3.25;;;18.60;99.90;;;;;;5036735;28;20053;-58
2023/09/21 12:11:40;;;;;;;9.50;2.85;;;18.60;99.90;;;;;;5036840;28;20099;-58
2023/09/21 12:14:06;;;;;;;9.85;2.70;;;18.60;99.90;;;;;;5036977;28;20427;-58
2023/09/21 12:16:35;;;;;;;13.02;2.92;;;18.50;99.90;;;;;;5036431;28;20041;-59
2023/09/21 12:19:02;;;;;;;7.40;2.20;;;18.60;99.90;;;;;;5036733;28;20041;-55
2023/09/21 12:21:30;;;;;;;9.10;2.53;;;18.60;99.90;;;;;;5036530;28;20041;-57
2023/09/21 12:23:58;;;;;;;11.30;2.78;;;18.70;99.90;;;;;;5036654;28;20042;-59
2023/09/21 12:26:25;;;;;;;8.77;2.00;;;18.70;99.90;;;;;;5036398;28;20112;-59
2023/09/21 12:28:53;;;;;;;9.07;1.92;;;18.60;99.90;;;;;;5036215;28;20048;-57
2023/09/21 12:31:20;;;;;;;8.82;2.72;;;18.70;99.90;;;;;;5036120;28;20417;-54
2023/09/21 12:33:47;;;;;;;8.93;2.42;;;18.70;99.90;;;;;;5034699;28;20552;-57
2023/09/21 12:36:14;;;;;;;8.70;2.20;;;18.80;99.90;;;;;;5036313;28;20045;-60
2023/09/21 12:38:56;;;;;;;5.28;1.83;;;18.70;99.90;;;;;;5034920;28;20121;-57
2023/09/21 12:41:23;;;;;;;9.27;1.88;;;18.70;99.90;;;;;;5036346;28;20033;-58
2023/09/21 12:43:50;;;;;;;6.03;1.90;;;18.60;99.90;;;;;;5036249;28;20095;-58
2023/09/21 12:46:16;;;;;;;9.32;2.03;;;18.60;99.90;;;;;;5035824;28;20037;-57